sensor_id;sensor_type;location;lat;lon;timestamp;temperature;humidity
10889;DHT22;5497;51.388;6.780;2022-08-14T00:01:05;20.30;86.30
10889;DHT22;5497;51.388;6.780;2022-08-14T00:03:32;20.20;86.40
10889;DHT22;5497;51.388;6.780;2022-08-14T00:06:00;20.20;86.50
10889;DHT22;5497;51.388;6.780;2022-08-14T00:08:29;20.20;86.70
10889;DHT22;5497;51.388;6.780;2022-08-14T00:10:56;20.20;86.70
10889;DHT22;5497;51.388;6.780;2022-08-14T00:13:23;20.20;86.90
10889;DHT22;5497;51.388;6.780;2022-08-14T00:15:53;20.10;87.10
10889;DHT22;5497;51.388;6.780;2022-08-14T00:18:22;20.10;87.20
10889;DHT22;5497;51.388;6.780;2022-08-14T00:20:49;20.00;85.50
10889;DHT22;5497;51.388;6.780;2022-08-14T00:23:17;20.00;87.60
10889;DHT22;5497;51.388;6.780;2022-08-14T00:25:46;19.90;87.70
10889;DHT22;5497;51.388;6.780;2022-08-14T00:28:13;19.80;87.80
10889;DHT22;5497;51.388;6.780;2022-08-14T00:30:41;19.80;88.20
10889;DHT22;5497;51.388;6.780;2022-08-14T00:33:08;19.70;88.60
10889;DHT22;5497;51.388;6.780;2022-08-14T00:35:35;19.70;88.90
10889;DHT22;5497;51.388;6.780;2022-08-14T00:38:02;19.60;89.00
10889;DHT22;5497;51.388;6.780;2022-08-14T00:40:28;19.50;88.10
10889;DHT22;5497;51.388;6.780;2022-08-14T00:42:57;19.50;89.10
10889;DHT22;5497;51.388;6.780;2022-08-14T00:45:24;19.40;89.40
10889;DHT22;5497;51.388;6.780;2022-08-14T00:47:52;19.40;90.10
10889;DHT22;5497;51.388;6.780;2022-08-14T00:50:20;19.30;90.20
10889;DHT22;5497;51.388;6.780;2022-08-14T00:52:49;19.30;90.10
10889;DHT22;5497;51.388;6.780;2022-08-14T00:55:18;19.20;90.40
10889;DHT22;5497;51.388;6.780;2022-08-14T00:57:46;19.20;90.60
10889;DHT22;5497;51.388;6.780;2022-08-14T01:00:36;19.10;90.30
10889;DHT22;5497;51.388;6.780;2022-08-14T01:03:03;19.10;90.80
10889;DHT22;5497;51.388;6.780;2022-08-14T01:05:31;19.00;90.90
10889;DHT22;5497;51.388;6.780;2022-08-14T01:07:59;19.00;91.10
10889;DHT22;5497;51.388;6.780;2022-08-14T01:10:29;19.00;91.50
10889;DHT22;5497;51.388;6.780;2022-08-14T01:13:11;18.90;91.30
10889;DHT22;5497;51.388;6.780;2022-08-14T01:15:42;18.90;91.80
10889;DHT22;5497;51.388;6.780;2022-08-14T01:18:10;18.90;91.60
10889;DHT22;5497;51.388;6.780;2022-08-14T01:20:54;18.80;91.60
10889;DHT22;5497;51.388;6.780;2022-08-14T01:23:33;18.80;91.90
10889;DHT22;5497;51.388;6.780;2022-08-14T01:26:00;18.70;92.10
10889;DHT22;5497;51.388;6.780;2022-08-14T01:28:27;18.70;92.30
10889;DHT22;5497;51.388;6.780;2022-08-14T01:30:55;18.70;92.40
10889;DHT22;5497;51.388;6.780;2022-08-14T01:33:23;18.70;92.30
10889;DHT22;5497;51.388;6.780;2022-08-14T01:35:53;18.70;92.40
10889;DHT22;5497;51.388;6.780;2022-08-14T01:38:23;18.70;92.90
10889;DHT22;5497;51.388;6.780;2022-08-14T01:40:52;18.70;93.00
10889;DHT22;5497;51.388;6.780;2022-08-14T01:43:19;18.60;93.10
10889;DHT22;5497;51.388;6.780;2022-08-14T01:45:47;18.60;93.20
10889;DHT22;5497;51.388;6.780;2022-08-14T01:48:16;18.60;93.40
10889;DHT22;5497;51.388;6.780;2022-08-14T01:50:43;18.50;92.80
10889;DHT22;5497;51.388;6.780;2022-08-14T01:53:10;18.50;93.70
10889;DHT22;5497;51.388;6.780;2022-08-14T01:55:37;18.50;93.80
10889;DHT22;5497;51.388;6.780;2022-08-14T01:58:06;18.50;94.00
10889;DHT22;5497;51.388;6.780;2022-08-14T02:00:36;18.50;93.80
10889;DHT22;5497;51.388;6.780;2022-08-14T02:03:04;18.50;94.40
10889;DHT22;5497;51.388;6.780;2022-08-14T02:05:31;18.50;94.50
10889;DHT22;5497;51.388;6.780;2022-08-14T02:07:59;18.50;94.70
10889;DHT22;5497;51.388;6.780;2022-08-14T02:10:27;18.50;94.80
10889;DHT22;5497;51.388;6.780;2022-08-14T02:12:54;18.40;94.90
10889;DHT22;5497;51.388;6.780;2022-08-14T02:15:23;18.40;95.10
10889;DHT22;5497;51.388;6.780;2022-08-14T02:17:50;18.50;95.40
10889;DHT22;5497;51.388;6.780;2022-08-14T02:20:17;18.50;95.50
10889;DHT22;5497;51.388;6.780;2022-08-14T02:22:44;18.50;95.50
10889;DHT22;5497;51.388;6.780;2022-08-14T02:25:11;18.50;95.60
10889;DHT22;5497;51.388;6.780;2022-08-14T02:27:39;18.40;95.70
10889;DHT22;5497;51.388;6.780;2022-08-14T02:30:07;18.40;95.90
10889;DHT22;5497;51.388;6.780;2022-08-14T02:32:36;18.30;96.00
10889;DHT22;5497;51.388;6.780;2022-08-14T02:35:04;18.30;96.10
10889;DHT22;5497;51.388;6.780;2022-08-14T02:37:35;18.20;96.30
10889;DHT22;5497;51.388;6.780;2022-08-14T02:40:05;18.20;96.50
10889;DHT22;5497;51.388;6.780;2022-08-14T02:42:32;18.10;96.70
10889;DHT22;5497;51.388;6.780;2022-08-14T02:44:59;18.10;96.80
10889;DHT22;5497;51.388;6.780;2022-08-14T02:47:26;18.10;97.00
10889;DHT22;5497;51.388;6.780;2022-08-14T02:49:54;18.10;97.20
10889;DHT22;5497;51.388;6.780;2022-08-14T02:52:22;18.10;97.40
10889;DHT22;5497;51.388;6.780;2022-08-14T02:54:50;18.00;97.50
10889;DHT22;5497;51.388;6.780;2022-08-14T02:57:17;18.00;97.60
10889;DHT22;5497;51.388;6.780;2022-08-14T02:59:45;17.90;97.80
10889;DHT22;5497;51.388;6.780;2022-08-14T03:02:12;17.90;98.10
10889;DHT22;5497;51.388;6.780;2022-08-14T03:04:41;17.80;98.20
10889;DHT22;5497;51.388;6.780;2022-08-14T03:07:09;17.80;98.40
10889;DHT22;5497;51.388;6.780;2022-08-14T03:09:36;17.80;98.60
10889;DHT22;5497;51.388;6.780;2022-08-14T03:12:04;17.70;98.80
10889;DHT22;5497;51.388;6.780;2022-08-14T03:14:30;17.70;99.00
10889;DHT22;5497;51.388;6.780;2022-08-14T03:17:00;17.70;99.20
10889;DHT22;5497;51.388;6.780;2022-08-14T03:19:27;17.70;99.40
10889;DHT22;5497;51.388;6.780;2022-08-14T03:21:54;17.60;98.60
10889;DHT22;5497;51.388;6.780;2022-08-14T03:24:22;17.60;99.60
10889;DHT22;5497;51.388;6.780;2022-08-14T03:26:50;17.60;99.90
10889;DHT22;5497;51.388;6.780;2022-08-14T03:29:20;17.50;99.90
10889;DHT22;5497;51.388;6.780;2022-08-14T03:31:47;17.50;99.90
10889;DHT22;5497;51.388;6.780;2022-08-14T03:34:16;17.50;99.90
10889;DHT22;5497;51.388;6.780;2022-08-14T03:36:50;17.40;99.90
10889;DHT22;5497;51.388;6.780;2022-08-14T03:39:23;17.40;99.90
10889;DHT22;5497;51.388;6.780;2022-08-14T03:41:52;17.40;99.90
10889;DHT22;5497;51.388;6.780;2022-08-14T03:44:19;17.40;99.90
10889;DHT22;5497;51.388;6.780;2022-08-14T03:46:46;17.30;99.90
10889;DHT22;5497;51.388;6.780;2022-08-14T03:49:13;17.30;99.90
10889;DHT22;5497;51.388;6.780;2022-08-14T03:51:40;17.30;99.90
10889;DHT22;5497;51.388;6.780;2022-08-14T03:54:08;17.30;99.90
10889;DHT22;5497;51.388;6.780;2022-08-14T03:56:38;17.30;99.90
10889;DHT22;5497;51.388;6.780;2022-08-14T03:59:09;17.20;99.90
10889;DHT22;5497;51.388;6.780;2022-08-14T04:01:38;17.20;99.90
10889;DHT22;5497;51.388;6.780;2022-08-14T04:04:07;17.20;99.90
10889;DHT22;5497;51.388;6.780;2022-08-14T04:06:34;17.20;99.90
10889;DHT22;5497;51.388;6.780;2022-08-14T04:09:02;17.20;99.90
10889;DHT22;5497;51.388;6.780;2022-08-14T04:11:29;17.20;99.90
10889;DHT22;5497;51.388;6.780;2022-08-14T04:13:58;17.20;99.90
10889;DHT22;5497;51.388;6.780;2022-08-14T04:16:25;17.20;99.90
10889;DHT22;5497;51.388;6.780;2022-08-14T04:18:53;17.20;99.90
10889;DHT22;5497;51.388;6.780;2022-08-14T04:21:25;17.20;99.90
10889;DHT22;5497;51.388;6.780;2022-08-14T04:23:54;17.20;99.90
10889;DHT22;5497;51.388;6.780;2022-08-14T04:26:22;17.20;99.90
10889;DHT22;5497;51.388;6.780;2022-08-14T04:31:19;17.30;99.90
10889;DHT22;5497;51.388;6.780;2022-08-14T04:33:46;17.30;99.90
10889;DHT22;5497;51.388;6.780;2022-08-14T04:36:14;17.30;99.90
10889;DHT22;5497;51.388;6.780;2022-08-14T04:38:41;17.30;99.90
10889;DHT22;5497;51.388;6.780;2022-08-14T04:41:25;17.30;99.90
10889;DHT22;5497;51.388;6.780;2022-08-14T04:44:09;17.30;99.90
10889;DHT22;5497;51.388;6.780;2022-08-14T04:46:38;17.30;99.90
10889;DHT22;5497;51.388;6.780;2022-08-14T04:49:05;17.30;99.90
10889;DHT22;5497;51.388;6.780;2022-08-14T04:51:34;17.40;99.90
10889;DHT22;5497;51.388;6.780;2022-08-14T04:54:01;17.40;99.90
10889;DHT22;5497;51.388;6.780;2022-08-14T04:56:27;17.40;99.90
10889;DHT22;5497;51.388;6.780;2022-08-14T04:58:58;17.50;99.90
10889;DHT22;5497;51.388;6.780;2022-08-14T05:01:26;17.50;99.90
10889;DHT22;5497;51.388;6.780;2022-08-14T05:03:54;17.50;99.90
10889;DHT22;5497;51.388;6.780;2022-08-14T05:06:21;17.60;99.90
10889;DHT22;5497;51.388;6.780;2022-08-14T05:08:49;17.60;99.90
10889;DHT22;5497;51.388;6.780;2022-08-14T05:11:17;17.70;99.90
10889;DHT22;5497;51.388;6.780;2022-08-14T05:13:44;17.80;99.90
10889;DHT22;5497;51.388;6.780;2022-08-14T05:16:11;17.90;99.90
10889;DHT22;5497;51.388;6.780;2022-08-14T05:18:39;18.00;99.90
10889;DHT22;5497;51.388;6.780;2022-08-14T05:21:08;18.10;99.90
10889;DHT22;5497;51.388;6.780;2022-08-14T05:23:36;18.20;99.90
10889;DHT22;5497;51.388;6.780;2022-08-14T05:26:03;18.20;99.90
10889;DHT22;5497;51.388;6.780;2022-08-14T05:28:38;18.40;99.90
10889;DHT22;5497;51.388;6.780;2022-08-14T05:31:06;18.50;99.90
10889;DHT22;5497;51.388;6.780;2022-08-14T05:33:34;18.70;99.90
10889;DHT22;5497;51.388;6.780;2022-08-14T05:36:02;18.80;99.90
10889;DHT22;5497;51.388;6.780;2022-08-14T05:38:31;19.10;99.90
10889;DHT22;5497;51.388;6.780;2022-08-14T05:41:00;19.30;99.90
10889;DHT22;5497;51.388;6.780;2022-08-14T05:43:27;20.20;99.90
10889;DHT22;5497;51.388;6.780;2022-08-14T05:45:55;21.40;99.90
10889;DHT22;5497;51.388;6.780;2022-08-14T05:48:22;22.60;99.90
10889;DHT22;5497;51.388;6.780;2022-08-14T05:50:50;23.90;99.90
10889;DHT22;5497;51.388;6.780;2022-08-14T05:53:19;25.20;99.90
10889;DHT22;5497;51.388;6.780;2022-08-14T05:55:47;26.50;99.90
10889;DHT22;5497;51.388;6.780;2022-08-14T05:58:14;27.70;99.90
10889;DHT22;5497;51.388;6.780;2022-08-14T06:00:42;29.80;99.90
10889;DHT22;5497;51.388;6.780;2022-08-14T06:03:09;29.90;99.90
10889;DHT22;5497;51.388;6.780;2022-08-14T06:05:39;30.90;99.90
10889;DHT22;5497;51.388;6.780;2022-08-14T06:08:12;31.90;99.90
10889;DHT22;5497;51.388;6.780;2022-08-14T06:10:40;33.60;96.70
10889;DHT22;5497;51.388;6.780;2022-08-14T06:13:09;33.60;95.50
10889;DHT22;5497;51.388;6.780;2022-08-14T06:15:36;34.30;93.60
10889;DHT22;5497;51.388;6.780;2022-08-14T06:18:03;34.90;91.90
10889;DHT22;5497;51.388;6.780;2022-08-14T06:20:30;35.40;90.50
10889;DHT22;5497;51.388;6.780;2022-08-14T06:22:57;35.70;87.50
10889;DHT22;5497;51.388;6.780;2022-08-14T06:25:24;35.50;85.10
10889;DHT22;5497;51.388;6.780;2022-08-14T06:27:52;35.60;83.10
10889;DHT22;5497;51.388;6.780;2022-08-14T06:30:22;35.80;82.10
10889;DHT22;5497;51.388;6.780;2022-08-14T06:32:49;35.90;81.10
10889;DHT22;5497;51.388;6.780;2022-08-14T06:35:16;35.60;77.80
10889;DHT22;5497;51.388;6.780;2022-08-14T06:37:45;35.30;78.20
10889;DHT22;5497;51.388;6.780;2022-08-14T06:40:16;35.10;77.40
10889;DHT22;5497;51.388;6.780;2022-08-14T06:42:43;35.10;78.50
10889;DHT22;5497;51.388;6.780;2022-08-14T06:45:10;35.50;78.10
10889;DHT22;5497;51.388;6.780;2022-08-14T06:47:40;35.60;75.60
10889;DHT22;5497;51.388;6.780;2022-08-14T06:50:09;36.00;75.90
10889;DHT22;5497;51.388;6.780;2022-08-14T06:52:37;36.60;75.90
10889;DHT22;5497;51.388;6.780;2022-08-14T06:55:05;37.00;73.80
10889;DHT22;5497;51.388;6.780;2022-08-14T06:57:36;37.50;73.00
10889;DHT22;5497;51.388;6.780;2022-08-14T07:00:05;37.80;71.20
10889;DHT22;5497;51.388;6.780;2022-08-14T07:02:32;38.20;70.50
10889;DHT22;5497;51.388;6.780;2022-08-14T07:05:18;38.50;68.20
10889;DHT22;5497;51.388;6.780;2022-08-14T07:08:03;38.50;66.90
10889;DHT22;5497;51.388;6.780;2022-08-14T07:10:30;38.20;66.40
10889;DHT22;5497;51.388;6.780;2022-08-14T07:12:57;38.20;67.00
10889;DHT22;5497;51.388;6.780;2022-08-14T07:15:24;38.30;66.00
10889;DHT22;5497;51.388;6.780;2022-08-14T07:17:51;38.40;66.50
10889;DHT22;5497;51.388;6.780;2022-08-14T07:20:20;38.50;64.40
10889;DHT22;5497;51.388;6.780;2022-08-14T07:22:47;38.60;65.00
10889;DHT22;5497;51.388;6.780;2022-08-14T07:25:14;38.50;63.60
10889;DHT22;5497;51.388;6.780;2022-08-14T07:27:42;38.40;64.40
10889;DHT22;5497;51.388;6.780;2022-08-14T07:30:10;38.30;63.30
10889;DHT22;5497;51.388;6.780;2022-08-14T07:32:38;38.10;63.70
10889;DHT22;5497;51.388;6.780;2022-08-14T07:35:05;37.80;64.20
10889;DHT22;5497;51.388;6.780;2022-08-14T07:37:34;37.80;64.10
10889;DHT22;5497;51.388;6.780;2022-08-14T07:40:03;37.90;64.00
10889;DHT22;5497;51.388;6.780;2022-08-14T07:42:32;38.10;64.60
10889;DHT22;5497;51.388;6.780;2022-08-14T07:44:59;38.20;63.60
10889;DHT22;5497;51.388;6.780;2022-08-14T07:47:27;38.40;63.70
10889;DHT22;5497;51.388;6.780;2022-08-14T07:50:00;38.60;63.70
10889;DHT22;5497;51.388;6.780;2022-08-14T07:52:28;38.80;62.50
10889;DHT22;5497;51.388;6.780;2022-08-14T07:54:57;38.80;62.40
10889;DHT22;5497;51.388;6.780;2022-08-14T07:57:26;38.90;62.10
10889;DHT22;5497;51.388;6.780;2022-08-14T07:59:53;39.00;61.80
10889;DHT22;5497;51.388;6.780;2022-08-14T08:02:20;39.20;61.50
10889;DHT22;5497;51.388;6.780;2022-08-14T08:04:50;39.20;60.60
10889;DHT22;5497;51.388;6.780;2022-08-14T08:07:18;39.10;60.00
10889;DHT22;5497;51.388;6.780;2022-08-14T08:09:49;38.90;60.50
10889;DHT22;5497;51.388;6.780;2022-08-14T08:12:20;38.70;61.10
10889;DHT22;5497;51.388;6.780;2022-08-14T08:14:49;38.50;60.20
10889;DHT22;5497;51.388;6.780;2022-08-14T08:17:17;38.60;61.10
10889;DHT22;5497;51.388;6.780;2022-08-14T08:19:45;38.80;60.40
10889;DHT22;5497;51.388;6.780;2022-08-14T08:22:13;38.60;59.30
10889;DHT22;5497;51.388;6.780;2022-08-14T08:24:41;38.20;60.20
10889;DHT22;5497;51.388;6.780;2022-08-14T08:27:14;38.10;60.40
10889;DHT22;5497;51.388;6.780;2022-08-14T08:29:44;37.90;60.50
10889;DHT22;5497;51.388;6.780;2022-08-14T08:32:11;37.80;60.30
10889;DHT22;5497;51.388;6.780;2022-08-14T08:34:42;37.80;60.10
10889;DHT22;5497;51.388;6.780;2022-08-14T08:37:11;37.70;60.40
10889;DHT22;5497;51.388;6.780;2022-08-14T08:39:43;37.50;60.30
10889;DHT22;5497;51.388;6.780;2022-08-14T08:42:12;37.30;60.90
10889;DHT22;5497;51.388;6.780;2022-08-14T08:44:39;37.20;61.10
10889;DHT22;5497;51.388;6.780;2022-08-14T08:47:09;37.10;61.50
10889;DHT22;5497;51.388;6.780;2022-08-14T08:49:38;37.20;61.50
10889;DHT22;5497;51.388;6.780;2022-08-14T08:52:07;37.40;61.40
10889;DHT22;5497;51.388;6.780;2022-08-14T08:54:34;37.50;60.80
10889;DHT22;5497;51.388;6.780;2022-08-14T08:57:10;37.40;60.90
10889;DHT22;5497;51.388;6.780;2022-08-14T08:59:38;37.30;60.90
10889;DHT22;5497;51.388;6.780;2022-08-14T09:02:08;37.20;60.90
10889;DHT22;5497;51.388;6.780;2022-08-14T09:04:39;37.10;60.90
10889;DHT22;5497;51.388;6.780;2022-08-14T09:07:09;37.00;60.90
10889;DHT22;5497;51.388;6.780;2022-08-14T09:09:38;36.90;60.70
10889;DHT22;5497;51.388;6.780;2022-08-14T09:12:19;36.80;61.30
10889;DHT22;5497;51.388;6.780;2022-08-14T09:14:47;36.90;61.80
10889;DHT22;5497;51.388;6.780;2022-08-14T09:17:18;36.80;61.20
10889;DHT22;5497;51.388;6.780;2022-08-14T09:19:49;36.60;61.10
10889;DHT22;5497;51.388;6.780;2022-08-14T09:22:18;36.50;61.30
10889;DHT22;5497;51.388;6.780;2022-08-14T09:24:47;36.50;61.20
10889;DHT22;5497;51.388;6.780;2022-08-14T09:27:14;36.60;60.90
10889;DHT22;5497;51.388;6.780;2022-08-14T09:29:42;36.40;60.40
10889;DHT22;5497;51.388;6.780;2022-08-14T09:32:11;36.20;60.60
10889;DHT22;5497;51.388;6.780;2022-08-14T09:34:51;36.00;60.90
10889;DHT22;5497;51.388;6.780;2022-08-14T09:37:43;35.80;61.00
10889;DHT22;5497;51.388;6.780;2022-08-14T09:40:21;35.70;61.60
10889;DHT22;5497;51.388;6.780;2022-08-14T09:43:03;35.80;60.80
10889;DHT22;5497;51.388;6.780;2022-08-14T09:45:41;35.30;60.00
10889;DHT22;5497;51.388;6.780;2022-08-14T09:48:30;35.30;60.50
10889;DHT22;5497;51.388;6.780;2022-08-14T09:51:18;34.80;60.50
10889;DHT22;5497;51.388;6.780;2022-08-14T09:54:03;34.20;59.90
10889;DHT22;5497;51.388;6.780;2022-08-14T09:56:44;33.60;61.40
10889;DHT22;5497;51.388;6.780;2022-08-14T09:59:19;33.10;61.30
10889;DHT22;5497;51.388;6.780;2022-08-14T10:01:54;32.60;63.20
10889;DHT22;5497;51.388;6.780;2022-08-14T10:04:24;32.20;63.90
10889;DHT22;5497;51.388;6.780;2022-08-14T10:06:56;31.90;63.50
10889;DHT22;5497;51.388;6.780;2022-08-14T10:09:26;31.60;63.70
10889;DHT22;5497;51.388;6.780;2022-08-14T10:11:56;31.40;64.00
10889;DHT22;5497;51.388;6.780;2022-08-14T10:14:28;31.20;64.00
10889;DHT22;5497;51.388;6.780;2022-08-14T10:16:58;31.10;64.50
10889;DHT22;5497;51.388;6.780;2022-08-14T10:19:28;31.00;64.50
10889;DHT22;5497;51.388;6.780;2022-08-14T10:21:59;30.90;65.00
10889;DHT22;5497;51.388;6.780;2022-08-14T10:24:31;30.90;65.30
10889;DHT22;5497;51.388;6.780;2022-08-14T10:27:00;30.90;65.20
10889;DHT22;5497;51.388;6.780;2022-08-14T10:29:31;31.00;66.40
10889;DHT22;5497;51.388;6.780;2022-08-14T10:31:59;31.00;65.60
10889;DHT22;5497;51.388;6.780;2022-08-14T10:34:31;31.10;65.60
10889;DHT22;5497;51.388;6.780;2022-08-14T10:37:06;31.20;66.10
10889;DHT22;5497;51.388;6.780;2022-08-14T10:39:34;31.40;66.00
10889;DHT22;5497;51.388;6.780;2022-08-14T10:42:04;31.60;65.20
10889;DHT22;5497;51.388;6.780;2022-08-14T10:44:41;31.60;65.30
10889;DHT22;5497;51.388;6.780;2022-08-14T10:47:15;31.60;65.70
10889;DHT22;5497;51.388;6.780;2022-08-14T10:49:55;31.70;65.90
10889;DHT22;5497;51.388;6.780;2022-08-14T10:52:26;31.90;65.90
10889;DHT22;5497;51.388;6.780;2022-08-14T10:55:05;32.00;65.60
10889;DHT22;5497;51.388;6.780;2022-08-14T10:57:44;32.10;65.60
10889;DHT22;5497;51.388;6.780;2022-08-14T11:00:15;32.20;65.70
10889;DHT22;5497;51.388;6.780;2022-08-14T11:02:43;32.30;65.90
10889;DHT22;5497;51.388;6.780;2022-08-14T11:05:13;32.40;65.60
10889;DHT22;5497;51.388;6.780;2022-08-14T11:07:55;32.40;65.10
10889;DHT22;5497;51.388;6.780;2022-08-14T11:10:40;32.40;65.00
10889;DHT22;5497;51.388;6.780;2022-08-14T11:13:14;32.20;65.50
10889;DHT22;5497;51.388;6.780;2022-08-14T11:15:44;32.00;65.40
10889;DHT22;5497;51.388;6.780;2022-08-14T11:18:15;31.70;65.50
10889;DHT22;5497;51.388;6.780;2022-08-14T11:20:50;31.70;65.10
10889;DHT22;5497;51.388;6.780;2022-08-14T11:23:26;31.70;65.90
10889;DHT22;5497;51.388;6.780;2022-08-14T11:25:56;31.90;66.20
10889;DHT22;5497;51.388;6.780;2022-08-14T11:28:30;32.00;65.40
10889;DHT22;5497;51.388;6.780;2022-08-14T11:31:02;32.10;65.50
10889;DHT22;5497;51.388;6.780;2022-08-14T11:33:30;32.20;64.80
10889;DHT22;5497;51.388;6.780;2022-08-14T11:36:00;32.30;65.10
10889;DHT22;5497;51.388;6.780;2022-08-14T11:38:37;32.40;65.00
10889;DHT22;5497;51.388;6.780;2022-08-14T11:41:06;32.30;64.70
10889;DHT22;5497;51.388;6.780;2022-08-14T11:43:38;32.20;64.80
10889;DHT22;5497;51.388;6.780;2022-08-14T11:46:07;32.20;65.30
10889;DHT22;5497;51.388;6.780;2022-08-14T11:48:46;32.30;65.50
10889;DHT22;5497;51.388;6.780;2022-08-14T11:51:15;32.60;65.30
10889;DHT22;5497;51.388;6.780;2022-08-14T11:53:53;32.70;64.40
10889;DHT22;5497;51.388;6.780;2022-08-14T11:56:23;32.60;63.80
10889;DHT22;5497;51.388;6.780;2022-08-14T11:58:53;32.50;63.90
10889;DHT22;5497;51.388;6.780;2022-08-14T12:01:26;32.30;64.20
10889;DHT22;5497;51.388;6.780;2022-08-14T12:03:54;32.40;64.50
10889;DHT22;5497;51.388;6.780;2022-08-14T12:06:24;32.50;64.80
10889;DHT22;5497;51.388;6.780;2022-08-14T12:08:56;32.70;64.80
10889;DHT22;5497;51.388;6.780;2022-08-14T12:11:23;32.90;64.40
10889;DHT22;5497;51.388;6.780;2022-08-14T12:13:51;32.80;63.80
10889;DHT22;5497;51.388;6.780;2022-08-14T12:16:18;32.70;63.90
10889;DHT22;5497;51.388;6.780;2022-08-14T12:18:47;32.60;64.20
10889;DHT22;5497;51.388;6.780;2022-08-14T12:21:19;32.50;64.70
10889;DHT22;5497;51.388;6.780;2022-08-14T12:23:58;32.60;64.30
10889;DHT22;5497;51.388;6.780;2022-08-14T12:26:28;32.80;64.60
10889;DHT22;5497;51.388;6.780;2022-08-14T12:29:04;33.20;64.20
10889;DHT22;5497;51.388;6.780;2022-08-14T12:31:33;33.60;63.80
10889;DHT22;5497;51.388;6.780;2022-08-14T12:34:02;33.80;63.50
10889;DHT22;5497;51.388;6.780;2022-08-14T12:36:30;34.00;62.70
10889;DHT22;5497;51.388;6.780;2022-08-14T12:38:58;34.00;62.20
10889;DHT22;5497;51.388;6.780;2022-08-14T12:41:28;34.00;62.80
10889;DHT22;5497;51.388;6.780;2022-08-14T12:43:57;33.80;62.50
10889;DHT22;5497;51.388;6.780;2022-08-14T12:46:28;33.50;62.80
10889;DHT22;5497;51.388;6.780;2022-08-14T12:48:58;33.20;63.10
10889;DHT22;5497;51.388;6.780;2022-08-14T12:51:27;33.20;63.40
10889;DHT22;5497;51.388;6.780;2022-08-14T12:53:56;33.30;63.30
10889;DHT22;5497;51.388;6.780;2022-08-14T12:56:24;33.40;62.90
10889;DHT22;5497;51.388;6.780;2022-08-14T12:58:55;33.50;62.80
10889;DHT22;5497;51.388;6.780;2022-08-14T13:01:24;33.30;61.40
10889;DHT22;5497;51.388;6.780;2022-08-14T13:04:04;33.20;61.60
10889;DHT22;5497;51.388;6.780;2022-08-14T13:06:33;33.20;62.00
10889;DHT22;5497;51.388;6.780;2022-08-14T13:09:00;33.30;62.20
10889;DHT22;5497;51.388;6.780;2022-08-14T13:11:31;33.50;62.50
10889;DHT22;5497;51.388;6.780;2022-08-14T13:14:04;33.80;62.60
10889;DHT22;5497;51.388;6.780;2022-08-14T13:16:33;34.00;62.00
10889;DHT22;5497;51.388;6.780;2022-08-14T13:19:02;34.00;60.70
10889;DHT22;5497;51.388;6.780;2022-08-14T13:21:34;34.10;60.80
10889;DHT22;5497;51.388;6.780;2022-08-14T13:24:02;34.10;60.70
10889;DHT22;5497;51.388;6.780;2022-08-14T13:26:31;34.20;61.30
10889;DHT22;5497;51.388;6.780;2022-08-14T13:29:00;34.40;60.70
10889;DHT22;5497;51.388;6.780;2022-08-14T13:31:32;34.60;60.50
10889;DHT22;5497;51.388;6.780;2022-08-14T13:33:59;34.70;60.40
10889;DHT22;5497;51.388;6.780;2022-08-14T13:36:28;34.70;59.80
10889;DHT22;5497;51.388;6.780;2022-08-14T13:38:56;34.70;60.10
10889;DHT22;5497;51.388;6.780;2022-08-14T13:41:26;34.80;60.30
10889;DHT22;5497;51.388;6.780;2022-08-14T13:43:54;35.00;60.00
10889;DHT22;5497;51.388;6.780;2022-08-14T13:46:22;35.00;59.10
10889;DHT22;5497;51.388;6.780;2022-08-14T13:48:51;35.00;58.90
10889;DHT22;5497;51.388;6.780;2022-08-14T13:51:22;35.10;59.40
10889;DHT22;5497;51.388;6.780;2022-08-14T13:53:55;35.30;59.50
10889;DHT22;5497;51.388;6.780;2022-08-14T13:56:27;35.70;59.10
10889;DHT22;5497;51.388;6.780;2022-08-14T13:58:57;35.80;58.50
10889;DHT22;5497;51.388;6.780;2022-08-14T14:01:26;35.80;58.20
10889;DHT22;5497;51.388;6.780;2022-08-14T14:03:55;36.60;58.60
10889;DHT22;5497;51.388;6.780;2022-08-14T14:06:23;36.00;57.40
10889;DHT22;5497;51.388;6.780;2022-08-14T14:08:55;36.20;57.40
10889;DHT22;5497;51.388;6.780;2022-08-14T14:11:23;36.30;56.90
10889;DHT22;5497;51.388;6.780;2022-08-14T14:13:51;36.40;56.80
10889;DHT22;5497;51.388;6.780;2022-08-14T14:16:19;36.40;56.80
10889;DHT22;5497;51.388;6.780;2022-08-14T14:18:48;36.30;56.50
10889;DHT22;5497;51.388;6.780;2022-08-14T14:21:19;36.20;56.80
10889;DHT22;5497;51.388;6.780;2022-08-14T14:23:46;36.10;57.10
10889;DHT22;5497;51.388;6.780;2022-08-14T14:26:16;36.10;57.40
10889;DHT22;5497;51.388;6.780;2022-08-14T14:28:48;36.20;57.30
10889;DHT22;5497;51.388;6.780;2022-08-14T14:31:18;36.30;56.60
10889;DHT22;5497;51.388;6.780;2022-08-14T14:33:50;36.20;56.80
10889;DHT22;5497;51.388;6.780;2022-08-14T14:36:24;36.00;56.50
10889;DHT22;5497;51.388;6.780;2022-08-14T14:38:53;35.80;56.70
10889;DHT22;5497;51.388;6.780;2022-08-14T14:41:22;35.50;57.10
10889;DHT22;5497;51.388;6.780;2022-08-14T14:43:50;35.40;57.20
10889;DHT22;5497;51.388;6.780;2022-08-14T14:46:19;35.30;57.40
10889;DHT22;5497;51.388;6.780;2022-08-14T14:48:46;35.10;56.90
10889;DHT22;5497;51.388;6.780;2022-08-14T14:51:15;34.80;57.10
10889;DHT22;5497;51.388;6.780;2022-08-14T14:53:45;34.40;57.80
10889;DHT22;5497;51.388;6.780;2022-08-14T14:56:12;34.10;58.50
10889;DHT22;5497;51.388;6.780;2022-08-14T14:58:41;33.90;58.60
10889;DHT22;5497;51.388;6.780;2022-08-14T15:01:09;33.80;58.80
10889;DHT22;5497;51.388;6.780;2022-08-14T15:03:38;33.70;59.10
10889;DHT22;5497;51.388;6.780;2022-08-14T15:06:07;33.60;59.10
10889;DHT22;5497;51.388;6.780;2022-08-14T15:08:35;33.60;59.30
10889;DHT22;5497;51.388;6.780;2022-08-14T15:11:05;33.70;59.10
10889;DHT22;5497;51.388;6.780;2022-08-14T15:13:33;34.10;59.00
10889;DHT22;5497;51.388;6.780;2022-08-14T15:16:03;34.40;59.20
10889;DHT22;5497;51.388;6.780;2022-08-14T15:18:30;34.70;58.90
10889;DHT22;5497;51.388;6.780;2022-08-14T15:20:58;34.80;58.50
10889;DHT22;5497;51.388;6.780;2022-08-14T15:23:27;34.90;58.20
10889;DHT22;5497;51.388;6.780;2022-08-14T15:25:54;34.90;58.30
10889;DHT22;5497;51.388;6.780;2022-08-14T15:28:23;34.90;58.00
10889;DHT22;5497;51.388;6.780;2022-08-14T15:30:51;34.70;57.40
10889;DHT22;5497;51.388;6.780;2022-08-14T15:33:19;34.50;58.30
10889;DHT22;5497;51.388;6.780;2022-08-14T15:36:07;34.30;58.20
10889;DHT22;5497;51.388;6.780;2022-08-14T15:38:35;34.20;58.60
10889;DHT22;5497;51.388;6.780;2022-08-14T15:41:02;34.10;58.80
10889;DHT22;5497;51.388;6.780;2022-08-14T15:43:31;34.10;58.50
10889;DHT22;5497;51.388;6.780;2022-08-14T15:45:59;33.80;58.60
10889;DHT22;5497;51.388;6.780;2022-08-14T15:48:27;33.50;58.70
10889;DHT22;5497;51.388;6.780;2022-08-14T15:50:54;33.40;59.00
10889;DHT22;5497;51.388;6.780;2022-08-14T15:53:22;33.20;59.20
10889;DHT22;5497;51.388;6.780;2022-08-14T15:55:50;32.90;59.40
10889;DHT22;5497;51.388;6.780;2022-08-14T15:58:17;32.60;60.40
10889;DHT22;5497;51.388;6.780;2022-08-14T16:00:45;32.30;60.20
10889;DHT22;5497;51.388;6.780;2022-08-14T16:03:30;32.20;60.90